createdAt,value
2024-04-10T00:01:52.725Z,12.65
2024-04-10T00:04:20.312Z,12.58
2024-04-10T00:06:47.399Z,12.56
2024-04-10T00:09:14.912Z,12.49
2024-04-10T00:11:42.177Z,12.43
2024-04-10T00:14:09.831Z,12.36
2024-04-10T00:16:36.997Z,12.33
2024-04-10T00:19:06.203Z,12.27
2024-04-10T00:21:36.405Z,12.23
2024-04-10T00:24:06.497Z,12.20
2024-04-10T00:26:33.777Z,12.12
2024-04-10T00:29:05.245Z,12.12
2024-04-10T00:31:32.411Z,12.05
2024-04-10T00:34:00.180Z,11.97
2024-04-10T00:36:28.348Z,11.92
2024-04-10T00:38:55.824Z,11.86
2024-04-10T00:41:23.300Z,11.79
2024-04-10T00:43:50.821Z,11.74
2024-04-10T00:46:22.413Z,11.72
2024-04-10T00:48:51.242Z,11.71
2024-04-10T00:51:19.830Z,11.71
2024-04-10T00:53:47.681Z,11.67
2024-04-10T00:56:15.470Z,11.66
2024-04-10T00:58:43.171Z,11.64
2024-04-10T01:01:11.019Z,11.62
2024-04-10T01:03:43.098Z,11.62
2024-04-10T01:06:11.267Z,11.60
2024-04-10T01:08:39.291Z,11.63
2024-04-10T01:11:10.103Z,11.63
2024-04-10T01:13:37.739Z,11.60
2024-04-10T01:16:05.281Z,11.59
2024-04-10T01:18:33.035Z,11.52
2024-04-10T01:21:00.319Z,11.49
2024-04-10T01:23:27.934Z,11.46
2024-04-10T01:25:55.242Z,11.45
2024-04-10T01:28:25.151Z,11.43
2024-04-10T01:30:52.665Z,11.43
2024-04-10T01:33:20.261Z,11.42
2024-04-10T01:35:49.893Z,11.39
2024-04-10T01:38:19.823Z,11.39
2024-04-10T01:40:46.890Z,11.39
2024-04-10T01:43:17.290Z,11.37
2024-04-10T01:45:44.361Z,11.34
2024-04-10T01:48:12.251Z,11.32
2024-04-10T01:50:39.985Z,11.31
2024-04-10T01:53:07.477Z,11.31
2024-04-10T01:55:34.496Z,11.30
2024-04-10T01:58:02.417Z,11.28
2024-04-10T02:00:29.613Z,11.27
2024-04-10T02:02:57.159Z,11.26
2024-04-10T02:05:24.359Z,11.23
2024-04-10T02:07:51.937Z,11.23
2024-04-10T02:10:19.038Z,11.17
2024-04-10T02:12:46.460Z,11.10
2024-04-10T02:15:13.652Z,11.05
2024-04-10T02:17:41.293Z,11.03
2024-04-10T02:20:08.975Z,11.03
2024-04-10T02:22:36.455Z,10.97
2024-04-10T02:25:03.551Z,10.96
2024-04-10T02:27:33.976Z,10.90
2024-04-10T02:30:01.151Z,10.83
2024-04-10T02:32:31.333Z,10.82
2024-04-10T02:34:58.504Z,10.73
2024-04-10T02:37:25.971Z,10.69
2024-04-10T02:39:53.524Z,10.66
2024-04-10T02:42:20.944Z,10.63
2024-04-10T02:44:52.821Z,10.58
2024-04-10T02:48:57.716Z,10.46
2024-04-10T02:51:25.285Z,10.41
2024-04-10T02:53:52.371Z,10.35
2024-04-10T02:56:22.225Z,10.30
2024-04-10T02:58:50.379Z,10.25
2024-04-10T03:01:18.096Z,10.17
2024-04-10T03:03:48.122Z,10.18
2024-04-10T03:06:15.738Z,10.11
2024-04-10T03:08:42.934Z,10.00
2024-04-10T03:11:11.745Z,9.98
2024-04-10T03:13:42.384Z,9.94
2024-04-10T03:16:10.650Z,9.93
2024-04-10T03:18:37.803Z,9.92
2024-04-10T03:21:05.398Z,9.97
2024-04-10T03:23:32.807Z,9.95
2024-04-10T03:26:07.741Z,9.97
2024-04-10T03:28:37.493Z,9.99
2024-04-10T03:31:06.149Z,10.00
2024-04-10T03:33:33.814Z,10.04
2024-04-10T03:36:01.324Z,10.10
2024-04-10T03:38:30.935Z,10.09
2024-04-10T03:40:58.607Z,10.08
2024-04-10T03:43:25.695Z,10.07
2024-04-10T03:45:54.355Z,10.07
2024-04-10T03:48:21.747Z,10.07
2024-04-10T03:50:49.511Z,10.04
2024-04-10T03:53:16.945Z,10.02
2024-04-10T03:55:44.500Z,10.07
2024-04-10T03:58:11.603Z,10.08
2024-04-10T04:00:39.118Z,10.06
2024-04-10T04:03:06.495Z,10.08
2024-04-10T04:05:35.744Z,10.09
2024-04-10T04:08:03.524Z,10.06
2024-04-10T04:10:30.672Z,10.07
2024-04-10T04:12:59.017Z,10.06
2024-04-10T04:15:26.158Z,10.06
2024-04-10T04:17:53.655Z,10.10
2024-04-10T04:20:21.463Z,10.09
2024-04-10T04:22:49.227Z,10.12
2024-04-10T04:25:17.642Z,10.13
2024-04-10T04:27:45.004Z,10.13
2024-04-10T04:30:14.159Z,10.11
2024-04-10T04:32:42.110Z,10.14
2024-04-10T04:35:09.728Z,10.14
2024-04-10T04:37:37.267Z,10.16
2024-04-10T04:40:07.857Z,10.17
2024-04-10T04:42:35.355Z,10.17
2024-04-10T04:45:02.684Z,10.19
2024-04-10T04:47:30.268Z,10.24
2024-04-10T04:49:57.579Z,10.23
2024-04-10T04:52:25.205Z,10.23
2024-04-10T04:54:52.258Z,10.14
2024-04-10T04:57:21.057Z,10.05
2024-04-10T04:59:48.602Z,10.03
2024-04-10T05:02:18.508Z,10.03
2024-04-10T05:05:01.941Z,10.03
2024-04-10T05:07:30.147Z,10.00
2024-04-10T05:09:57.202Z,9.99
2024-04-10T05:12:24.716Z,10.00
2024-04-10T05:14:54.580Z,9.96
2024-04-10T05:17:22.298Z,9.99
2024-04-10T05:19:49.703Z,9.98
2024-04-10T05:22:17.178Z,9.99
2024-04-10T05:24:44.931Z,10.01
2024-04-10T05:27:22.604Z,10.00
2024-04-10T05:30:01.344Z,10.05
2024-04-10T05:32:29.493Z,10.05
2024-04-10T05:34:57.194Z,10.07
2024-04-10T05:37:24.731Z,10.08
2024-04-10T05:40:15.219Z,10.04
2024-04-10T05:42:43.333Z,10.09
2024-04-10T05:45:11.437Z,10.05
2024-04-10T05:47:40.028Z,10.08
2024-04-10T05:50:11.085Z,10.13
2024-04-10T05:52:41.380Z,10.15
2024-04-10T05:55:08.859Z,10.18
2024-04-10T05:57:36.413Z,10.23
2024-04-10T06:00:04.795Z,10.18
2024-04-10T06:02:41.017Z,10.26
2024-04-10T06:05:09.254Z,10.17
2024-04-10T06:07:43.920Z,10.18
2024-04-10T06:10:12.316Z,10.23
2024-04-10T06:12:39.962Z,10.29
2024-04-10T06:15:07.182Z,10.32
2024-04-10T06:17:35.070Z,10.37
2024-04-10T06:20:06.501Z,10.44
2024-04-10T06:22:34.074Z,10.41
2024-04-10T06:25:01.222Z,10.45
2024-04-10T06:27:30.100Z,10.58
2024-04-10T06:29:58.417Z,10.57
2024-04-10T06:32:26.175Z,10.65
2024-04-10T06:34:53.436Z,10.64
2024-04-10T06:37:20.952Z,10.60
2024-04-10T06:39:51.000Z,10.58
2024-04-10T06:42:18.467Z,10.61
2024-04-10T06:44:47.938Z,10.57
2024-04-10T06:47:15.566Z,10.52
2024-04-10T06:49:42.937Z,10.47
2024-04-10T06:52:10.469Z,10.47
2024-04-10T06:54:37.641Z,10.48
2024-04-10T06:57:05.294Z,10.52
2024-04-10T06:59:35.183Z,10.57
2024-04-10T07:02:03.161Z,10.63
2024-04-10T07:04:31.558Z,10.63
2024-04-10T07:07:02.820Z,10.71
2024-04-10T07:09:30.027Z,10.75
2024-04-10T07:11:57.696Z,10.77
2024-04-10T07:14:25.050Z,10.88
2024-04-10T07:16:53.434Z,10.90
2024-04-10T07:19:20.557Z,10.98
2024-04-10T07:21:48.834Z,10.99
2024-04-10T07:24:15.880Z,11.03
2024-04-10T07:26:44.088Z,11.01
2024-04-10T07:29:11.400Z,11.12
2024-04-10T07:31:40.701Z,11.24
2024-04-10T07:34:08.931Z,11.17
2024-04-10T07:36:42.282Z,11.26
2024-04-10T07:39:10.754Z,11.26
2024-04-10T07:41:39.576Z,11.29
2024-04-10T07:44:10.636Z,11.44
2024-04-10T07:46:38.319Z,11.45
2024-04-10T07:49:05.653Z,11.50
2024-04-10T07:51:33.487Z,11.51
2024-04-10T07:54:03.046Z,11.64
2024-04-10T07:56:31.094Z,11.66
2024-04-10T07:58:59.935Z,11.63
2024-04-10T08:01:27.663Z,11.64
2024-04-10T08:03:55.162Z,11.57
2024-04-10T08:06:22.822Z,11.64
2024-04-10T08:08:50.004Z,11.64
2024-04-10T08:11:23.068Z,11.74
2024-04-10T08:13:50.657Z,11.87
2024-04-10T08:16:19.073Z,11.80
2024-04-10T08:18:47.222Z,11.71
2024-04-10T08:21:15.885Z,11.66
2024-04-10T08:23:45.837Z,11.73
2024-04-10T08:26:17.430Z,11.96
2024-04-10T08:28:53.251Z,12.00
2024-04-10T08:31:29.542Z,11.74
2024-04-10T08:33:57.880Z,11.79
2024-04-10T08:36:26.250Z,11.67
2024-04-10T08:38:56.334Z,11.58
2024-04-10T08:41:24.351Z,11.48
2024-04-10T08:43:53.367Z,11.60
2024-04-10T08:46:25.351Z,11.68
2024-04-10T08:48:55.904Z,11.66
2024-04-10T08:51:24.944Z,11.72
2024-04-10T08:53:54.162Z,11.64
2024-04-10T08:56:21.708Z,11.74
2024-04-10T08:58:48.970Z,11.74
2024-04-10T09:01:30.147Z,11.79
2024-04-10T09:03:57.954Z,11.89
2024-04-10T09:06:25.740Z,11.82
2024-04-10T09:08:59.585Z,11.81
2024-04-10T09:11:27.442Z,11.75
2024-04-10T09:14:04.252Z,11.71
2024-04-10T09:16:32.158Z,11.69
2024-04-10T09:19:28.756Z,11.83
2024-04-10T09:21:57.149Z,11.76
2024-04-10T09:24:28.203Z,11.78
2024-04-10T09:26:56.195Z,11.85
2024-04-10T09:29:30.894Z,11.87
2024-04-10T09:32:09.292Z,12.00
2024-04-10T09:34:38.013Z,11.85
2024-04-10T09:37:10.040Z,11.94
2024-04-10T09:39:37.543Z,11.85
2024-04-10T09:42:10.802Z,12.06
2024-04-10T09:44:38.221Z,12.02
2024-04-10T09:47:09.423Z,11.97
2024-04-10T09:49:41.400Z,11.98
2024-04-10T09:52:10.654Z,11.83
2024-04-10T09:54:40.349Z,12.00
2024-04-10T09:57:10.408Z,11.97
2024-04-10T09:59:37.914Z,11.90
2024-04-10T10:02:08.881Z,12.03
2024-04-10T10:04:40.010Z,12.02
2024-04-10T10:07:08.736Z,12.13
2024-04-10T10:09:35.997Z,12.07
2024-04-10T10:12:03.597Z,11.79
2024-04-10T10:14:32.443Z,12.00
2024-04-10T10:17:09.905Z,11.96
2024-04-10T10:19:38.034Z,11.91
2024-04-10T10:22:09.946Z,11.86
2024-04-10T10:24:37.982Z,11.90
2024-04-10T10:27:05.379Z,11.95
2024-04-10T10:29:33.181Z,11.98
2024-04-10T10:32:04.464Z,12.08
2024-04-10T10:34:32.607Z,11.95
2024-04-10T10:37:04.302Z,12.02
2024-04-10T10:39:31.896Z,12.14
2024-04-10T10:42:05.675Z,12.10
2024-04-10T10:44:33.698Z,12.22
2024-04-10T10:47:01.341Z,12.35
2024-04-10T10:49:28.955Z,12.62
2024-04-10T10:51:56.761Z,12.59
2024-04-10T10:54:24.539Z,12.74
2024-04-10T10:56:52.225Z,12.73
2024-04-10T10:59:19.980Z,12.99
2024-04-10T11:01:47.986Z,12.98
2024-04-10T11:04:16.938Z,13.14
2024-04-10T11:06:44.473Z,13.31
2024-04-10T11:09:17.325Z,13.41
2024-04-10T11:11:45.036Z,13.58
2024-04-10T11:14:14.966Z,13.73
2024-04-10T11:16:42.402Z,13.72
2024-04-10T11:19:10.290Z,13.57
2024-04-10T11:21:40.372Z,13.69
2024-04-10T11:24:08.734Z,13.66
2024-04-10T11:26:35.987Z,13.42
2024-04-10T11:29:03.585Z,13.43
2024-04-10T11:31:30.844Z,13.51
2024-04-10T11:33:59.078Z,13.69
2024-04-10T11:36:28.828Z,13.83
2024-04-10T11:38:58.433Z,14.02
2024-04-10T11:41:28.078Z,14.23
2024-04-10T11:43:57.640Z,13.93
2024-04-10T11:46:24.817Z,13.79
2024-04-10T11:48:52.388Z,13.85
2024-04-10T11:51:19.702Z,13.95
2024-04-10T11:53:47.535Z,13.93
2024-04-10T11:56:17.101Z,14.03
2024-04-10T11:58:44.752Z,13.82
2024-04-10T12:01:11.984Z,13.86
2024-04-10T12:03:39.983Z,13.73
2024-04-10T12:06:07.581Z,13.48
2024-04-10T12:08:37.693Z,13.35
2024-04-10T12:11:06.951Z,13.32
2024-04-10T12:13:42.244Z,13.56
2024-04-10T12:16:09.710Z,13.69
2024-04-10T12:18:39.858Z,13.72
2024-04-10T12:21:09.886Z,13.77
2024-04-10T12:23:37.679Z,13.68
2024-04-10T12:26:09.023Z,13.84
2024-04-10T12:28:36.863Z,13.92
2024-04-10T12:31:04.763Z,13.75
2024-04-10T12:33:32.887Z,13.82
2024-04-10T12:36:18.623Z,13.80
2024-04-10T12:38:46.348Z,13.92
2024-04-10T12:41:13.405Z,13.87
2024-04-10T12:43:44.222Z,13.73
2024-04-10T12:46:11.558Z,13.65
2024-04-10T12:48:39.806Z,13.76
2024-04-10T12:51:06.916Z,14.04
2024-04-10T12:53:34.472Z,14.21
2024-04-10T12:56:01.935Z,14.15
2024-04-10T12:58:29.645Z,14.10
2024-04-10T13:01:01.022Z,14.50
2024-04-10T13:03:33.268Z,14.80
2024-04-10T13:06:01.038Z,14.77
2024-04-10T13:08:29.007Z,14.71
2024-04-10T13:11:07.154Z,14.54
2024-04-10T13:13:38.326Z,14.66
2024-04-10T13:16:06.730Z,14.91
2024-04-10T13:18:34.716Z,14.96
2024-04-10T13:21:02.551Z,15.05
2024-04-10T13:23:32.439Z,15.08
2024-04-10T13:26:08.370Z,14.85
2024-04-10T13:28:38.358Z,14.95
2024-04-10T13:31:13.973Z,14.74
2024-04-10T13:33:43.262Z,14.68
2024-04-10T13:36:14.501Z,14.56
2024-04-10T13:38:45.941Z,14.62
2024-04-10T13:41:13.665Z,14.74
2024-04-10T13:43:41.527Z,14.63
2024-04-10T13:46:10.722Z,14.60
2024-04-10T13:48:39.914Z,14.58
2024-04-10T13:51:10.033Z,14.47
2024-04-10T13:53:37.557Z,14.37
2024-04-10T13:56:05.054Z,14.33
2024-04-10T13:58:36.300Z,14.45
2024-04-10T14:01:13.303Z,14.65
2024-04-10T14:03:42.074Z,14.68
2024-04-10T14:06:09.839Z,14.74
2024-04-10T14:08:38.034Z,14.54
2024-04-10T14:11:06.267Z,14.71
2024-04-10T14:13:34.668Z,14.64
2024-04-10T14:16:02.137Z,14.58
2024-04-10T14:18:30.659Z,14.77
2024-04-10T14:21:00.784Z,15.01
2024-04-10T14:23:29.966Z,14.84
2024-04-10T14:25:57.533Z,14.71
2024-04-10T14:28:26.735Z,14.80
2024-04-10T14:30:55.088Z,14.54
2024-04-10T14:33:22.807Z,14.60
2024-04-10T14:35:50.413Z,14.48
2024-04-10T14:38:18.371Z,14.38
2024-04-10T14:40:47.899Z,14.42
2024-04-10T14:43:15.526Z,14.36
2024-04-10T14:45:42.787Z,14.38
2024-04-10T14:48:12.464Z,14.46
2024-04-10T14:50:39.800Z,14.38
2024-04-10T14:53:07.687Z,14.39
2024-04-10T14:55:35.061Z,14.20
2024-04-10T14:58:03.217Z,14.23
2024-04-10T15:00:33.410Z,14.19
2024-04-10T15:03:01.120Z,14.10
2024-04-10T15:05:28.317Z,14.08
2024-04-10T15:07:55.962Z,14.05
2024-04-10T15:10:25.287Z,14.16
2024-04-10T15:12:55.263Z,13.98
2024-04-10T15:15:22.472Z,14.07
2024-04-10T15:17:50.089Z,14.05
2024-04-10T15:20:18.209Z,14.00
2024-04-10T15:22:47.590Z,14.01
2024-04-10T15:25:14.850Z,13.92
2024-04-10T15:27:44.643Z,14.00
2024-04-10T15:30:11.799Z,13.92
2024-04-10T15:32:39.426Z,13.94
2024-04-10T15:35:09.743Z,13.85
2024-04-10T15:37:37.292Z,13.90
2024-04-10T15:40:04.546Z,13.88
2024-04-10T15:42:32.190Z,13.86
2024-04-10T15:45:03.821Z,13.87
2024-04-10T15:47:31.532Z,13.77
2024-04-10T15:49:58.971Z,13.82
2024-04-10T15:52:39.247Z,13.71
2024-04-10T15:55:16.765Z,13.75
2024-04-10T15:57:46.640Z,13.65
2024-04-10T16:00:14.057Z,13.66
2024-04-10T16:02:41.900Z,13.64
2024-04-10T16:05:09.617Z,13.56
2024-04-10T16:07:37.447Z,13.50
2024-04-10T16:10:04.714Z,13.43
2024-04-10T16:12:32.360Z,13.38
2024-04-10T16:14:59.678Z,13.30
2024-04-10T16:17:27.185Z,13.31
2024-04-10T16:19:54.248Z,13.32
2024-04-10T16:22:22.082Z,13.28
2024-04-10T16:24:52.983Z,13.22
2024-04-10T16:27:20.635Z,13.21
2024-04-10T16:29:47.921Z,13.17
2024-04-10T16:32:15.674Z,13.12
2024-04-10T16:34:47.438Z,13.11
2024-04-10T16:37:15.420Z,13.07
2024-04-10T16:39:42.943Z,13.08
2024-04-10T16:42:10.770Z,13.00
2024-04-10T16:44:38.265Z,13.00
2024-04-10T16:47:05.999Z,12.93
2024-04-10T16:49:33.739Z,12.91
2024-04-10T16:52:01.364Z,12.87
2024-04-10T16:54:28.856Z,12.88
2024-04-10T16:56:57.007Z,12.85
2024-04-10T16:59:24.438Z,12.85
2024-04-10T17:01:54.359Z,12.79
2024-04-10T17:04:22.424Z,12.71
2024-04-10T17:06:50.966Z,12.67
2024-04-10T17:09:18.727Z,12.64
2024-04-10T17:11:46.554Z,12.60
2024-04-10T17:14:14.518Z,12.51
2024-04-10T17:16:42.839Z,12.46
2024-04-10T17:19:29.219Z,12.42
2024-04-10T17:22:01.060Z,12.40
2024-04-10T17:24:28.434Z,12.36
2024-04-10T17:26:57.431Z,12.35
2024-04-10T17:29:31.555Z,12.32
2024-04-10T17:32:00.018Z,12.26
2024-04-10T17:34:27.928Z,12.19
2024-04-10T17:36:58.322Z,12.16
2024-04-10T17:39:27.697Z,12.09
2024-04-10T17:41:58.003Z,12.14
2024-04-10T17:44:25.532Z,12.08
2024-04-10T17:46:56.152Z,12.09
2024-04-10T17:49:24.706Z,12.05
2024-04-10T17:51:52.536Z,11.96
2024-04-10T17:54:20.340Z,11.94
2024-04-10T17:56:48.263Z,11.90
2024-04-10T17:59:16.724Z,11.92
2024-04-10T18:01:45.112Z,11.90
2024-04-10T18:04:14.643Z,11.89
2024-04-10T18:06:42.619Z,11.87
2024-04-10T18:09:10.525Z,11.90
2024-04-10T18:11:40.460Z,11.89
2024-04-10T18:14:08.330Z,11.85
2024-04-10T18:16:37.493Z,11.83
2024-04-10T18:19:08.348Z,11.82
2024-04-10T18:21:36.507Z,11.83
2024-04-10T18:24:04.136Z,11.78
2024-04-10T18:26:34.934Z,11.77
2024-04-10T18:29:07.983Z,11.76
2024-04-10T18:31:39.301Z,11.77
2024-04-10T18:34:07.165Z,11.81
2024-04-10T18:36:37.565Z,11.80
2024-04-10T18:39:06.072Z,11.80
2024-04-10T18:41:38.124Z,11.80
2024-04-10T18:44:09.782Z,11.78
2024-04-10T18:46:38.634Z,11.72
2024-04-10T18:49:06.704Z,11.72
2024-04-10T18:51:35.791Z,11.72
2024-04-10T18:54:07.393Z,11.73
2024-04-10T18:56:35.894Z,11.73
2024-04-10T18:59:03.916Z,11.77
2024-04-10T19:01:32.807Z,11.78
2024-04-10T19:04:00.246Z,11.81
2024-04-10T19:06:28.071Z,11.81
2024-04-10T19:08:55.953Z,11.81
2024-04-10T19:11:24.578Z,11.84
2024-04-10T19:13:52.698Z,11.82
2024-04-10T19:16:23.790Z,11.79
2024-04-10T19:18:56.585Z,11.76
2024-04-10T19:21:26.022Z,11.70
2024-04-10T19:23:54.399Z,11.65
2024-04-10T19:26:22.985Z,11.67
2024-04-10T19:28:51.181Z,11.70
2024-04-10T19:31:20.200Z,11.72
2024-04-10T19:33:51.767Z,11.74
2024-04-10T19:36:24.852Z,11.70
2024-04-10T19:38:55.390Z,11.63
2024-04-10T19:41:24.697Z,11.56
2024-04-10T19:43:56.343Z,11.54
2024-04-10T19:46:26.465Z,11.56
2024-04-10T19:49:01.614Z,11.55
2024-04-10T19:51:37.760Z,11.51
2024-04-10T19:54:06.674Z,11.48
2024-04-10T19:56:35.511Z,11.48
2024-04-10T19:59:03.424Z,11.44
2024-04-10T20:01:33.928Z,11.43
2024-04-10T20:04:02.757Z,11.38
2024-04-10T20:06:31.245Z,11.35
2024-04-10T20:09:05.819Z,11.31
2024-04-10T20:11:34.491Z,11.22
2024-04-10T20:14:05.648Z,11.22
2024-04-10T20:16:36.606Z,11.18
2024-04-10T20:19:05.301Z,11.14
2024-04-10T20:21:36.649Z,11.15
2024-04-10T20:24:07.078Z,11.10
2024-04-10T20:26:36.242Z,11.10
2024-04-10T20:29:04.320Z,11.11
2024-04-10T20:31:34.240Z,11.08
2024-04-10T20:34:03.676Z,11.06
2024-04-10T20:36:34.468Z,11.03
2024-04-10T20:39:02.755Z,11.04
2024-04-10T20:41:32.830Z,11.07
2024-04-10T20:44:00.754Z,11.06
2024-04-10T20:46:29.018Z,11.05
2024-04-10T20:48:57.304Z,11.02
2024-04-10T20:51:28.039Z,11.03
2024-04-10T20:53:56.289Z,11.03
2024-04-10T20:56:25.144Z,11.00
2024-04-10T20:58:52.478Z,11.04
2024-04-10T21:01:20.777Z,11.02
2024-04-10T21:03:49.049Z,11.02
2024-04-10T21:06:17.661Z,10.99
2024-04-10T21:09:06.698Z,10.97
2024-04-10T21:11:55.460Z,10.98
2024-04-10T21:14:42.144Z,11.00
2024-04-10T21:17:28.616Z,11.03
2024-04-10T21:20:14.664Z,11.00
2024-04-10T21:23:01.148Z,11.02
2024-04-10T21:25:51.633Z,11.03
2024-04-10T21:28:37.926Z,11.01
2024-04-10T21:31:24.534Z,11.01
2024-04-10T21:34:11.552Z,10.99
2024-04-10T21:36:57.842Z,10.94
2024-04-10T21:39:44.753Z,10.96
2024-04-10T21:42:30.811Z,10.95
2024-04-10T21:45:17.154Z,11.00
2024-04-10T21:48:03.004Z,10.96
2024-04-10T21:50:49.690Z,10.96
2024-04-10T21:53:35.642Z,10.92
2024-04-10T21:56:25.857Z,10.92
2024-04-10T21:59:12.320Z,10.89
2024-04-10T22:02:06.005Z,10.89
2024-04-10T22:04:57.240Z,10.89
2024-04-10T22:07:45.577Z,10.93
2024-04-10T22:10:15.156Z,11.00
2024-04-10T22:12:43.018Z,11.02
2024-04-10T22:15:13.538Z,11.03
2024-04-10T22:18:02.140Z,11.05
2024-04-10T22:20:50.162Z,11.14
2024-04-10T22:23:36.298Z,11.17
2024-04-10T22:26:03.471Z,11.20
2024-04-10T22:28:32.137Z,11.20
2024-04-10T22:31:02.045Z,11.24
2024-04-10T22:33:29.701Z,11.27
2024-04-10T22:35:57.526Z,11.25
2024-04-10T22:38:25.513Z,11.26
2024-04-10T22:40:52.702Z,11.29
2024-04-10T22:43:23.845Z,11.27
2024-04-10T22:45:51.156Z,11.26
2024-04-10T22:48:19.200Z,11.28
2024-04-10T22:50:46.774Z,11.29
2024-04-10T22:53:16.339Z,11.30
2024-04-10T22:55:43.537Z,11.31
2024-04-10T22:58:11.067Z,11.31
2024-04-10T23:00:38.111Z,11.33
2024-04-10T23:03:06.074Z,11.34
2024-04-10T23:05:45.421Z,11.29
2024-04-10T23:10:49.834Z,11.30
2024-04-10T23:13:17.482Z,11.29
2024-04-10T23:15:44.654Z,11.32
2024-04-10T23:18:21.214Z,11.32
2024-04-10T23:20:59.393Z,11.30
2024-04-10T23:23:27.108Z,11.29
2024-04-10T23:25:54.196Z,11.29
2024-04-10T23:28:21.546Z,11.30
2024-04-10T23:30:48.750Z,11.27
2024-04-10T23:33:19.541Z,11.27
2024-04-10T23:35:47.358Z,11.27
2024-04-10T23:38:15.091Z,11.26
2024-04-10T23:40:43.596Z,11.21
2024-04-10T23:43:13.635Z,11.20
2024-04-10T23:45:40.669Z,11.19
2024-04-10T23:48:12.934Z,11.19
2024-04-10T23:50:40.481Z,11.20
2024-04-10T23:53:08.009Z,11.20
2024-04-10T23:55:35.075Z,11.20
2024-04-10T23:58:05.001Z,11.17
